Jemez Springs, Valles Caldera, New Mexico Weather observations

Data are for 10 minute period ending at time listed.
 Day   Time   Solar   Ave.   Ave.  Ave.  Vector  Max.   Baro.   Total    
  of    of     Rad.   Air    Rel.  Wind   Wind   Wind  Press.  Precip.   
Year   Day            Temp.  Hum.  Speed  Dir.   Gust                    
2016   (MST)  Kw/m2    F      %     mph   deg.    mph    mb.     in.     
-------------------------------------------------------------------------
 271    2:30   0.00   46.5    52    5.6   354    13.7   816.5    0.00 
 271    2:40   0.00   46.3    52    3.8   353     9.6   816.4    0.00 
 271    2:50   0.00   45.9    53    3.9   344     8.4   816.4    0.00 
 271    3:00   0.00   45.6    54    4.9     8    10.2   816.3    0.00 
 271    3:10   0.00   45.4    54    7.4     8    13.7   816.1    0.00 
 271    3:20   0.00   45.3    54    6.6    11    12.5   815.9    0.00 
 271    3:30   0.00   45.2    54    6.4     7    13.1   815.9    0.00 
 271    3:40   0.00   45.3    54    6.1     6    11.9   815.9    0.00 
 271    3:50   0.00   45.3    54    6.5    12    13.1   815.8    0.00 
 271    4:00   0.00   45.4    54    6.4     5    13.1   815.8    0.00 
 271    4:10   0.00   45.0    54    4.4   348     8.4   815.8    0.00 
 271    4:20   0.00   44.9    55    5.2     2     9.6   815.7    0.00 
 271    4:30   0.00   45.0    54    5.4     3    11.3   815.7    0.00 
 271    4:40   0.00   44.8    55    5.9     8    11.9   815.6    0.00 
 271    4:50   0.00   44.4    55    5.8   351    12.5   815.7    0.00 
 271    5:00   0.00   44.3    56    5.7   354    14.9   815.6    0.00 
 271    5:10   0.00   43.9    56    5.4   349    10.8   815.7    0.00 
 271    5:20   0.00   43.9    57    7.0     6    11.9   815.7    0.00 
 271    5:30   0.00   43.8    57    6.5     7    13.7   815.6    0.00 
 271    5:40   0.00   43.6    57    5.3     1    11.3   815.7    0.00 
 271    5:50   0.00   43.7    57    7.6    11    13.7   815.7    0.00 
 271    6:00   0.00   43.6    57    6.5     4    14.9   815.7    0.00 
 271    6:10   0.01   43.5    57    6.2   356    11.9   815.6    0.00 
 271    6:20   0.01   43.8    57    4.7   346     9.0   815.7    0.00 
 271    6:30   0.01   44.0    56    3.8   348     6.6   815.7    0.00 
 271    6:40   0.01   44.1    56    3.7   352     8.4   815.7    0.00 
 271    6:50   0.01   44.2    57    4.3    16     9.6   815.6    0.00 
 271    7:00   0.02   45.2    54    6.0     4    10.8   815.5    0.00 
 271    7:10   0.17   46.5    52    5.8     5    10.2   815.5    0.00 
 271    7:20   0.26   48.5    48    5.2    17    10.8   815.6    0.00 
 271    7:30   0.30   49.9    46    6.0    18    12.5   815.6    0.00 
 271    7:40   0.33   51.1    44    7.0    22    11.9   815.6    0.00 
 271    7:50   0.37   53.0    42    5.3    21    11.3   815.5    0.00 
 271    8:00   0.41   55.6    38    3.7    32     9.0   815.5    0.00 
 271    8:10   0.44   57.2    36    3.1    43     4.8   815.5    0.00 
 271    8:20   0.47   58.8    33    2.6   112     4.8   815.5    0.00 
 271    8:30   0.51   60.7    31    1.8   162     4.2   815.5    0.00 
 271    8:40   0.54   62.1    30    2.2   177     4.8   815.4    0.00 
 271    8:50   0.57   63.2    30    3.7   162     6.0   815.3    0.00 
 271    9:00   0.60   63.3    29    4.7   161     7.2   815.3    0.00 
 271    9:10   0.62   64.1    28    4.9   162     9.0   815.3    0.00 
 271    9:20   0.65   64.7    27    7.5   171    13.1   815.3    0.00 
 271    9:30   0.68   65.4    26    7.1   169    11.3   815.1    0.00 
 271    9:40   0.70   66.8    25    7.3   163    11.3   814.9    0.00 
 271    9:50   0.72   67.3    24    8.7   173    13.7   814.8    0.00 
 271   10:00   0.74   67.3    23   10.7   171    16.1   814.7    0.00 
 271   10:10   0.75   67.0    24   10.3   177    17.3   814.8    0.00 
 271   10:20   0.77   67.5    23    9.2   170    15.5   814.7    0.00 
 271   10:30   0.78   67.9    23    9.0   173    15.5   814.6    0.00 
 271   10:40   0.79   68.6    21    8.8   172    14.9   814.6    0.00 
 271   10:50   0.80   68.5    22    8.7   178    14.3   814.5    0.00 
 271   11:00   0.81   69.4    21    8.6   169    15.5   814.4    0.00 
 271   11:10   0.84   69.4    21    8.3   174    16.7   814.4    0.00 
 271   11:20   0.77   70.0    21    7.0   181    13.7   814.3    0.00 
 271   11:30   0.58   69.1    22    9.6   166    16.7   814.1    0.00 
 271   11:40   0.68   69.6    22    6.4   175    14.9   814.0    0.00 
 271   11:50   0.87   70.8    21    8.4   170    16.1   813.9    0.00 
 271   12:00   0.91   71.4    21    7.0   187    14.3   813.8    0.00 
 271   12:10   0.94   71.1    21    8.2   178    16.1   813.7    0.00 
 271   12:20   0.54   70.6    21    6.4   186    11.9   813.6    0.00 
 271   12:30   0.64   71.0    20    6.9   168    13.1   813.5    0.00 
 271   12:40   0.92   72.1    20    7.4   175    15.5   813.4    0.00 
 271   12:50   0.87   71.8    19    9.2   170    17.9   813.3    0.00 
 271   13:00   0.86   72.4    18    7.7   177    16.1   813.3    0.00 
 271   13:10   0.69   72.0    18    8.5   173    13.1   813.2    0.00 
 271   13:20   0.78   72.3    18    6.9   170    14.9   813.1    0.00 
 271   13:30   0.71   74.1    16    7.2   183    13.7   812.9    0.00 
 271   13:40   0.58   72.3    17    9.3   184    16.1   812.8    0.00 
 271   13:50   0.48   71.7    17    8.1   178    14.3   812.8    0.00 
 271   14:00   0.58   73.0    16    6.3   184    12.5   812.7    0.00 
 271   14:10   0.36   72.8    15    5.4   192    10.2   812.6    0.00 
 271   14:20   0.57   72.9    15    6.6   174    13.1   812.5    0.00 
 271   14:30   0.62   74.4    14    7.7   173    12.5   812.5    0.00 
 271   14:40   0.62   74.6    14    7.3   204    14.3   812.5    0.00 
 271   14:50   0.54   74.9    13    6.7   189    13.7   812.4    0.00 
 271   15:00   0.51   74.8    13    5.7   173    11.9   812.3    0.00 
 271   15:10   0.47   74.4    12    6.5   178    12.5   812.3    0.00 
 271   15:20   0.42   74.1    11    6.1   179    11.9   812.2    0.00 
 271   15:30   0.37   74.7    11    5.2   195    10.2   812.2    0.00 
 271   15:40   0.33   74.9    11    5.1   203     9.6   812.1    0.00 
 271   15:50   0.31   73.7    12    5.3   190     9.0   812.0    0.00 
 271   16:00   0.29   73.3    12    5.4   179    10.2   811.9    0.00 
 271   16:10   0.27   73.7    12    3.9   221     7.8   811.7    0.00 
 271   16:20   0.21   74.0    12    4.5   197     7.8   811.7    0.00 
 271   16:30   0.10   73.0    12    3.3   207     7.8   811.7    0.00 
 271   16:40   0.03   72.1    13    1.9   256     4.8   811.6    0.00 
 271   16:50   0.03   70.0    14    1.9   204     4.2   811.4    0.00 
 271   17:00   0.03   68.0    17    1.2   280     2.4   811.4    0.00 
 271   17:10   0.02   65.8    21    1.4     9     3.0   811.4    0.00 
 271   17:20   0.02   64.3    24    2.8    22     4.2   811.6    0.00 
 271   17:30   0.02   62.8    24    3.7    28     4.8   811.6    0.00 
 271   17:40   0.01   61.8    24    3.5    34     5.4   811.7    0.00 
 271   17:50   0.01   60.9    26    2.5    33     3.6   811.9    0.00 
 271   18:00   0.00   60.2    25    3.2    35     5.4   812.0    0.00 
 271   18:10   0.00   59.8    25    3.4    32     6.0   812.2    0.00 
 271   18:20   0.00   59.4    25    4.1    23     6.6   812.3    0.00 
 271   18:30   0.00   58.6    26    5.1    28     9.0   812.4    0.00 
 271   18:40   0.00   58.5    25    5.5    19     9.0   812.5    0.00 
 271   18:50   0.00   58.2    26    5.6    15     9.0   812.5    0.00 
 271   19:00   0.00   57.9    26    5.5    13     8.4   812.5    0.00 
 271   19:10   0.00   57.9    25    5.0    13     8.4   812.6    0.00 
 271   19:20   0.00   58.1    25    5.9    16     9.0   812.7    0.00 
 271   19:30   0.00   58.1    25    5.7    10     9.0   812.7    0.00 
 271   19:40   0.00   58.4    25    5.6    13     9.6   812.8    0.00 
 271   19:50   0.00   58.1    26    5.4     7     8.4   812.9    0.00 
 271   20:00   0.00   57.9    26    5.9     9    10.8   812.9    0.00 
 271   20:10   0.00   57.8    26    6.4    11    12.5   813.0    0.00 
 271   20:20   0.00   57.4    26    5.5     8    10.8   813.1    0.00 
 271   20:30   0.00   56.8    27    5.6     2     9.6   813.1    0.00 
 271   20:40   0.00   56.5    28    5.3     0    11.3   813.1    0.00 
 271   20:50   0.00   56.3    28    5.7     1    11.7   813.2    0.00 
 271   21:00   0.00   56.2    28    3.6   348     7.8   813.3    0.00 
 271   21:10   0.00   56.0    28    5.2   349     9.0   813.4    0.00 
 271   21:20   0.00   55.8    29    5.3     9    10.2   813.5    0.00 
 271   21:30   0.00   55.1    30    5.5     0    11.3   813.5    0.00 
 271   21:40   0.00   54.7    30    5.9     4    13.7   813.6    0.00 
 271   21:50   0.00   55.0    30    7.8    10    14.6   813.7    0.00 
 271   22:00   0.00   54.2    31    7.9    15    13.7   813.7    0.00 
 271   22:10   0.00   53.8    32    7.1    16    13.1   813.8    0.00 
 271   22:20   0.00   53.7    32    6.1     4    13.7   813.8    0.00 
 271   22:30   0.00   53.4    32    5.3     7     9.0   813.9    0.00 
 271   22:40   0.00   53.4    32    5.6     8    11.3   813.9    0.00 
 271   22:50   0.00   53.2    33    6.4    14    13.1   813.9    0.00 
 271   23:00   0.00   53.0    33    6.2     6    14.3   813.9    0.00 
 271   23:10   0.00   52.8    34    5.7     5    10.8   814.0    0.00 
 271   23:20   0.00   52.7    34    6.8     0    13.7   814.0    0.00 
 271   23:30   0.00   52.3    34    5.1     0    11.3   814.1    0.00 
 271   23:40   0.00   52.2    34    5.5   354    11.9   814.1    0.00 
 271   23:50   0.00   52.1    35    5.6   359    10.2   814.1    0.00 
 272    0:00   0.00   52.0    35    6.1     5    11.3   814.1    0.00 
 272    0:10   0.00   51.8    36    6.0   359    13.7   814.0    0.00 
 272    0:20   0.00   51.7    36    5.2   352    11.3   814.1    0.00 
 272    0:30   0.00   51.8    37    5.2   354    10.8   814.1    0.00 
 272    0:40   0.00   51.9    37    7.1    13    13.1   814.1    0.00 
 272    0:50   0.00   51.7    37    5.5   358    10.2   814.2    0.00 
 272    1:00   0.00   51.3    38    4.9   355     9.6   814.2    0.00 
 272    1:10   0.00   51.1    39    5.6   354    10.8   814.2    0.00 
 272    1:20   0.00   50.8    40    6.2   359    12.5   814.3    0.00 
 272    1:30   0.00   50.7    40    5.6     2    11.9   814.4    0.00 
 272    1:40   0.00   50.7    40    6.0     3    13.7   814.5    0.00 
 272    1:50   0.00   50.6    41    4.9   355    10.2   814.5    0.00 
 272    2:00   0.00   50.5    41    4.9   358     9.3   814.5    0.00 
 272    2:10   0.00   50.5    42    4.9     1    10.8   814.5    0.00 
 272    2:20   0.00   50.2    42    5.4   356    15.5   814.5    0.00 

Return to Jemez Springs, Valles Caldera graphs page.


Western Regional Climate Center,wrcc@dri.edu